CheckWX is a tool to help pilots better visualize weather data.  It is not intended as a substitute for an official pre-flight weather briefing.

17:27:53 UTC

EPSY METAR
Szczytno-Szymany International Airport
Poland
Current

28 mins ago

EPSY 241700Z VRB02KT CAVOK 07/M01 Q1018
Observed
Mar-24 @ 17:00 UTC
Wind
  • Variable at 2 KTS
Visibility
10,000+ meters
Flight Rules
VFR
Cloud Levels
  • Clear skies
Temperature
C / 45°F
Dewpoint
-1°C / 30°F
Humidity
57%
Altimeter
30.06" Hg
Pressure
1017.92 hPa
Previous

58 mins ago

EPSY 241630Z VRB04KT CAVOK 07/M01 Q1019
Observed
Mar-24 @ 16:30 UTC
Wind
  • Variable at 4 KTS
Visibility
10,000+ meters
Flight Rules
VFR
Cloud Levels
  • Clear skies
Temperature
C / 45°F
Dewpoint
-1°C / 30°F
Humidity
57%
Altimeter
30.09" Hg
Pressure
1018.92 hPa
Previous

1 hour ago

EPSY 241600Z VRB04KT CAVOK 07/M01 Q1019
Observed
Mar-24 @ 16:00 UTC
Wind
  • Variable at 4 KTS
Visibility
10,000+ meters
Flight Rules
VFR
Cloud Levels
  • Clear skies
Temperature
C / 45°F
Dewpoint
-1°C / 30°F
Humidity
57%
Altimeter
30.09" Hg
Pressure
1018.92 hPa